San Francisco, CA (94131)

1:00 PM PDT on August 24, 2016 (GMT -0700)
Glen Park | | Change Station

Elev 0 ft 37.73 °N, 122.44 °W | Updated 4 seconds ago

Partly Cloudy
Partly Cloudy
62.0 °F
Feels Like 62.0 °F
N
2.0
Wind Variable Wind from SSE
Gusts 8.0 mph

Today
High -- | Low -- °F
--% Chance of Precip.
Yesterday
High -- | Low -- °F
Precip. -- in
Pressure 30.08 in
Visibility 10.0 miles
Clouds Few 900 ft
Dew Point 54.3 °F
Humidity 76%
Rainfall 0.00 in
Snow Depth Not available.
6:33 AM 7:49 PM
Waning Gibbous, 54% visible
METAR KSFO 241956Z 31013KT 10SM FEW009 19/12 A3008 RMK AO2 SLP185 T01890122
Pressure 30.08 in
Visibility 10.0 miles
Clouds Few 900 ft
Dew Point 54.3 °F
Humidity 76%
Rainfall 0.00 in
Snow Depth Not available.
6:33 AM 7:49 PM
Waning Gibbous, 54% visible
METAR KSFO 241956Z 31013KT 10SM FEW009 19/12 A3008 RMK AO2 SLP185 T01890122

10-Day Weather Forecast

Almanac

Astronomy

Aug. 24, 2016 Rise Set
Actual Time
Civil Twilight
Nautical Twilight
Astronomical Twilight
Moon
Length of Visible Light
Length of Day
Tomorrow will be .
, % of the Moon is Illuminated

Today's Extremes

State Highs State Lows

Community

WunderPhotos

Upload Photos

1,934,690 photos uploaded!

WunderBlog® & News

Nearby

Air Quality

  Air Quality AQ Index Pollutant
Not available.

Snow Depth

Station Depth Elevation

Earthquake Activity

City Distance Mag. Time & Date
Minimum magnitude displayed is 2.5.

Coastal Water Temperatures

Place Temperature

Stations

Nearby Weather Stations

Station Location Temp. Windchill Dew Point Humidity Wind Precip. Elev Updated Type
                   

Watches & Warnings

There are currently no watches in effect.